Time;durP1;ratioP1;P1;durP2;ratioP2;P2;SDS_P1;SDS_P2;PMS_P1;PMS_P2;Temp;Humidity;BMP_temperature;BMP_pressure;BME280_temperature;BME280_humidity;BME280_pressure;Samples;Min_cycle;Max_cycle;Signal;HPM_P1;HPM_P2
2023/01/17 00:01:59;;;;;;;;;;;-1.10;99.90;;;;;;5055858;28;19946;-78
2023/01/17 00:09:56;;;;;;;;;;;-1.10;99.90;;;;;;5055218;28;19968;-78
2023/01/17 00:12:22;;;;;;;;;;;-1.10;99.90;;;;;;5054461;28;19924;-78
2023/01/17 00:14:48;;;;;;;;;;;-1.10;99.90;;;;;;5054364;28;19951;-78
2023/01/17 00:17:14;;;;;;;;;;;-1.10;99.90;;;;;;5054295;28;19908;-78
2023/01/17 01:34:08;;;;;;;;;;;-1.70;99.90;;;;;;5057622;28;19924;-78
2023/01/17 01:36:33;;;;;;;;;;;-1.70;99.90;;;;;;5022912;28;20280;-78
2023/01/17 01:38:59;;;;;;;;;;;-1.70;99.90;;;;;;5056769;28;20402;-78
2023/01/17 01:41:24;;;;;;;;;;;-1.70;99.90;;;;;;5057308;28;20327;-78
2023/01/17 01:43:51;;;;;;;;;;;-1.70;99.90;;;;;;5056596;28;19909;-78
2023/01/17 01:46:30;;;;;;;;;;;-1.70;99.90;;;;;;5056684;28;19912;-78
2023/01/17 01:49:01;;;;;;;;;;;-1.70;99.90;;;;;;5056588;28;19908;-78
2023/01/17 01:51:29;;;;;;;;;;;-1.80;99.90;;;;;;5056416;28;20288;-78
2023/01/17 01:53:59;;;;;;;;;;;-1.80;99.90;;;;;;5038654;28;19909;-78
2023/01/17 01:56:25;;;;;;;;;;;-1.80;99.90;;;;;;5056556;28;19909;-78
2023/01/17 01:58:51;;;;;;;;;;;-1.90;99.90;;;;;;5056774;28;19921;-78
2023/01/17 02:01:17;;;;;;;;;;;-1.90;99.90;;;;;;5039246;28;19921;-78
2023/01/17 02:03:43;;;;;;;;;;;-1.90;99.90;;;;;;5056973;28;19909;-78
2023/01/17 02:06:23;;;;;;;;;;;-1.90;99.90;;;;;;5057338;28;20254;-78
2023/01/17 02:08:49;;;;;;;;;;;-1.90;99.90;;;;;;5056552;28;20316;-78
2023/01/17 02:11:14;;;;;;;;;;;-2.00;99.90;;;;;;5057604;28;20003;-78
2023/01/17 02:13:40;;;;;;;;;;;-2.00;99.90;;;;;;5038350;28;20296;-78
2023/01/17 02:16:06;;;;;;;;;;;-2.00;99.90;;;;;;5056648;28;19915;-78
2023/01/17 02:18:34;;;;;;;;;;;-2.00;99.90;;;;;;5057730;28;20272;-78
2023/01/17 02:21:21;;;;;;;;;;;-2.00;99.90;;;;;;5039049;28;19916;-78
2023/01/17 02:23:49;;;;;;;;;;;-2.10;99.90;;;;;;5056293;28;19909;-78
2023/01/17 02:26:34;;;;;;;;;;;-2.00;99.90;;;;;;5056281;28;19915;-78
2023/01/17 02:29:09;;;;;;;;;;;-2.10;99.90;;;;;;5018587;28;19913;-78
2023/01/17 02:31:41;;;;;;;;;;;-2.10;99.90;;;;;;5036363;28;20365;-78
2023/01/17 02:34:19;;;;;;;;;;;-2.20;99.90;;;;;;5036229;28;19909;-78
2023/01/17 02:37:05;;;;;;;;;;;-2.20;99.90;;;;;;5018373;28;19909;-78
2023/01/17 02:39:33;;;;;;;;;;;-2.10;99.90;;;;;;5035299;28;20298;-78
2023/01/17 02:42:05;;;;;;;;;;;-2.10;99.90;;;;;;5043690;28;20361;-78
2023/01/17 02:44:38;;;;;;;;;;;-2.20;99.90;;;;;;5055881;28;20282;-78
2023/01/17 02:47:17;;;;;;;;;;;-2.20;99.90;;;;;;5038235;28;19913;-78
2023/01/17 02:49:43;;;;;;;;;;;-2.20;99.90;;;;;;5055916;28;19962;-78
2023/01/17 02:52:20;;;;;;;;;;;-2.20;99.90;;;;;;5055911;28;19917;-78
2023/01/17 02:55:00;;;;;;;;;;;-2.30;99.90;;;;;;5055523;28;19916;-78
2023/01/17 02:57:34;;;;;;;;;;;-2.30;99.90;;;;;;5055191;28;19956;-78
2023/01/17 03:00:00;;;;;;;;;;;-2.40;99.90;;;;;;5055196;28;19916;-78
2023/01/17 03:02:26;;;;;;;;;;;-2.50;99.90;;;;;;5055005;28;19968;-78
2023/01/17 03:04:51;;;;;;;;;;;-2.50;99.90;;;;;;5055199;28;19913;-78
2023/01/17 03:07:20;;;;;;;;;;;-2.50;99.90;;;;;;5055084;28;20027;-77
2023/01/17 03:09:47;;;;;;;;;;;-2.50;99.90;;;;;;5036971;28;19916;-77
2023/01/17 03:12:14;;;;;;;;;;;-2.50;99.90;;;;;;5054752;28;19913;-78
2023/01/17 03:14:39;;;;;;;;;;;-2.50;99.90;;;;;;5055512;28;20304;-78
2023/01/17 03:17:05;;;;;;;;;;;-2.50;99.90;;;;;;5037414;28;19996;-78
2023/01/17 03:19:30;;;;;;;;;;;-2.50;99.90;;;;;;5055667;28;20292;-78
2023/01/17 03:21:56;;;;;;;;;;;-2.60;99.90;;;;;;5055166;28;19966;-78
2023/01/17 03:24:22;;;;;;;;;;;-2.60;99.90;;;;;;5054796;28;20323;-78
2023/01/17 03:26:47;;;;;;;;;;;-2.60;99.90;;;;;;5037111;28;19927;-78
2023/01/17 03:29:13;;;;;;;;;;;-2.60;99.90;;;;;;5037252;28;20380;-78
2023/01/17 03:31:39;;;;;;;;;;;-2.50;99.90;;;;;;5055262;28;19955;-78
2023/01/17 03:34:04;;;;;;;;;;;-2.60;99.90;;;;;;5054935;28;19913;-78
2023/01/17 03:36:30;;;;;;;;;;;-2.60;99.90;;;;;;5036951;28;19913;-78
2023/01/17 03:38:56;;;;;;;;;;;-2.60;99.90;;;;;;5054856;28;19917;-78
2023/01/17 03:41:21;;;;;;;;;;;-2.60;99.90;;;;;;5054515;28;19913;-78
2023/01/17 03:43:47;;;;;;;;;;;-2.60;99.90;;;;;;5055634;28;20565;-78
2023/01/17 03:46:30;;;;;;;;;;;-2.60;99.90;;;;;;5055053;28;19909;-78
2023/01/17 03:48:56;;;;;;;;;;;-2.70;99.90;;;;;;5055173;28;19909;-78
2023/01/17 03:51:22;;;;;;;;;;;-2.70;99.90;;;;;;5054447;28;19916;-77
2023/01/17 03:53:48;;;;;;;;;;;-2.60;99.90;;;;;;5054789;28;19920;-78
2023/01/17 03:56:14;;;;;;;;;;;-2.70;99.90;;;;;;5036482;28;20391;-78
2023/01/17 03:58:40;;;;;;;;;;;-2.70;99.90;;;;;;5036505;28;19908;-78
2023/01/17 04:01:05;;;;;;;;;;;-2.80;99.90;;;;;;5053701;28;19920;-78
2023/01/17 04:03:31;;;;;;;;;;;-2.80;99.90;;;;;;5054175;28;19919;-79
2023/01/17 04:05:57;;;;;;;;;;;-2.80;99.90;;;;;;5015874;28;19917;-78
2023/01/17 04:08:22;;;;;;;;;;;-2.80;99.90;;;;;;5034111;28;20325;-78
2023/01/17 04:10:48;;;;;;;;;;;-2.80;99.90;;;;;;5033990;28;19917;-78
2023/01/17 04:13:15;;;;;;;;;;;-2.80;99.90;;;;;;5032997;28;19913;-78
2023/01/17 04:15:41;;;;;;;;;;;-2.80;99.90;;;;;;5032794;28;19920;-78
2023/01/17 04:18:07;;;;;;;;;;;-2.80;99.90;;;;;;5033736;28;19996;-78
2023/01/17 04:20:36;;;;;;;;;;;-2.80;99.90;;;;;;5036512;28;20019;-77
2023/01/17 04:23:02;;;;;;;;;;;-2.70;99.90;;;;;;5035441;28;20323;-78
2023/01/17 04:25:29;;;;;;;;;;;-2.70;99.90;;;;;;5055193;28;19917;-78
2023/01/17 04:27:56;;;;;;;;;;;-2.70;99.90;;;;;;5057239;28;19916;-78
2023/01/17 04:30:21;;;;;;;;;;;-2.70;99.90;;;;;;5057018;28;19920;-78
2023/01/17 04:32:47;;;;;;;;;;;-2.70;99.90;;;;;;5057146;28;19964;-78
2023/01/17 04:35:13;;;;;;;;;;;-2.70;99.90;;;;;;5038501;28;19990;-78
2023/01/17 04:37:38;;;;;;;;;;;-2.70;99.90;;;;;;5057458;28;19928;-78
2023/01/17 04:40:04;;;;;;;;;;;-2.70;99.90;;;;;;5038916;28;19913;-78
2023/01/17 04:42:30;;;;;;;;;;;-2.70;99.90;;;;;;5056719;28;19915;-78
2023/01/17 04:44:55;;;;;;;;;;;-2.70;99.90;;;;;;5056346;28;19912;-77
2023/01/17 04:47:21;;;;;;;;;;;-2.70;99.90;;;;;;5038266;28;20253;-78
2023/01/17 04:49:47;;;;;;;;;;;-2.70;99.90;;;;;;5055885;28;19959;-78
2023/01/17 04:52:17;;;;;;;;;;;-2.70;99.90;;;;;;5056252;28;19913;-77
2023/01/17 04:54:43;;;;;;;;;;;-2.70;99.90;;;;;;5022268;28;19913;-78
2023/01/17 04:57:08;;;;;;;;;;;-2.70;99.90;;;;;;5038539;28;19995;-78
2023/01/17 04:59:34;;;;;;;;;;;-2.70;99.90;;;;;;4990823;28;1871880;-78
2023/01/17 05:02:00;;;;;;;;;;;-2.60;99.90;;;;;;5057835;28;19909;-78
2023/01/17 05:04:25;;;;;;;;;;;-2.60;99.90;;;;;;5039153;28;19913;-77
2023/01/17 05:06:51;;;;;;;;;;;-2.60;99.90;;;;;;5039767;28;19924;-78
2023/01/17 05:09:16;;;;;;;;;;;-2.60;99.90;;;;;;5057718;28;19962;-78
2023/01/17 05:11:42;;;;;;;;;;;-2.60;99.90;;;;;;5057783;28;19919;-78
2023/01/17 05:14:08;;;;;;;;;;;-2.60;99.90;;;;;;5057738;28;19920;-78
2023/01/17 05:16:34;;;;;;;;;;;-2.70;99.90;;;;;;5039511;28;19912;-78
2023/01/17 05:19:00;;;;;;;;;;;-2.80;99.90;;;;;;5057370;28;19956;-78
2023/01/17 05:21:26;;;;;;;;;;;-2.80;99.90;;;;;;5039478;28;19913;-78
2023/01/17 05:23:51;;;;;;;;;;;-2.80;99.90;;;;;;5057531;28;20364;-78
2023/01/17 05:26:17;;;;;;;;;;;-2.80;99.90;;;;;;5039644;28;19913;-78
2023/01/17 05:28:42;;;;;;;;;;;-2.80;99.90;;;;;;5057423;28;20002;-78
2023/01/17 05:31:08;;;;;;;;;;;-2.80;99.90;;;;;;5056779;28;19916;-78
2023/01/17 05:33:34;;;;;;;;;;;-2.90;99.90;;;;;;5057157;28;19913;-78
2023/01/17 05:35:59;;;;;;;;;;;-2.90;99.90;;;;;;5057027;28;19967;-78
2023/01/17 05:38:25;;;;;;;;;;;-2.90;99.90;;;;;;5039059;28;20415;-78
2023/01/17 05:40:51;;;;;;;;;;;-2.80;99.90;;;;;;5056668;28;19912;-78
2023/01/17 05:43:17;;;;;;;;;;;-2.90;99.90;;;;;;5056788;28;19909;-77
2023/01/17 05:45:42;;;;;;;;;;;-2.90;99.90;;;;;;5056607;28;19970;-77
2023/01/17 05:48:08;;;;;;;;;;;-2.90;99.90;;;;;;5056132;28;19920;-76
2023/01/17 05:50:34;;;;;;;;;;;-2.90;99.90;;;;;;5056382;28;20403;-77
2023/01/17 05:53:11;;;;;;;;;;;-2.90;99.90;;;;;;5055970;28;19947;-77
2023/01/17 05:55:36;;;;;;;;;;;-2.90;99.90;;;;;;5038289;28;19954;-77
2023/01/17 05:58:02;;;;;;;;;;;-2.90;99.90;;;;;;5038197;28;19920;-77
2023/01/17 06:00:28;;;;;;;;;;;-3.00;99.90;;;;;;5055840;28;19924;-76
2023/01/17 06:02:55;;;;;;;;;;;-3.00;99.90;;;;;;5055987;28;19954;-77
2023/01/17 06:05:22;;;;;;;;;;;-3.00;99.90;;;;;;5038141;28;20395;-77
2023/01/17 06:07:48;;;;;;;;;;;-3.00;99.90;;;;;;5038076;28;19924;-77
2023/01/17 06:10:14;;;;;;;;;;;-3.00;99.90;;;;;;5056053;28;20004;-77
2023/01/17 06:12:40;;;;;;;;;;;-3.00;99.90;;;;;;5055532;28;19909;-77
2023/01/17 06:15:06;;;;;;;;;;;-3.00;99.90;;;;;;5056370;28;19912;-77
2023/01/17 06:17:32;;;;;;;;;;;-3.00;99.90;;;;;;5055605;28;19916;-77
2023/01/17 06:19:57;;;;;;;;;;;-3.00;99.90;;;;;;5055764;28;19917;-77
2023/01/17 06:22:23;;;;;;;;;;;-3.00;99.90;;;;;;5055582;28;19941;-77
2023/01/17 06:24:48;;;;;;;;;;;-3.00;99.90;;;;;;5037765;28;19913;-77
2023/01/17 06:27:14;;;;;;;;;;;-3.10;99.90;;;;;;5055388;28;19916;-77
2023/01/17 06:29:40;;;;;;;;;;;-3.10;99.90;;;;;;5055369;28;19913;-76
2023/01/17 06:32:05;;;;;;;;;;;-3.10;99.90;;;;;;5055466;28;19912;-77
2023/01/17 06:34:31;;;;;;;;;;;-3.10;99.90;;;;;;5055357;28;20015;-77
2023/01/17 06:36:56;;;;;;;;;;;-3.10;99.90;;;;;;5055313;28;19913;-77
2023/01/17 06:39:22;;;;;;;;;;;-3.10;99.90;;;;;;5055336;28;20499;-78
2023/01/17 06:41:47;;;;;;;;;;;-3.10;99.90;;;;;;5056790;28;19924;-78
2023/01/17 06:44:13;;;;;;;;;;;-3.10;99.90;;;;;;5055662;28;19940;-78
2023/01/17 06:46:39;;;;;;;;;;;-3.20;99.90;;;;;;5055276;28;20261;-78
2023/01/17 06:49:05;;;;;;;;;;;-3.20;99.90;;;;;;5054419;28;19913;-77
2023/01/17 06:51:31;;;;;;;;;;;-3.30;99.90;;;;;;5054938;28;19909;-77
2023/01/17 06:53:56;;;;;;;;;;;-3.30;99.90;;;;;;5055285;28;19912;-77
2023/01/17 06:56:22;;;;;;;;;;;-3.30;99.90;;;;;;5037118;28;19999;-77
2023/01/17 06:58:50;;;;;;;;;;;-3.20;99.90;;;;;;5054882;28;19923;-75
2023/01/17 07:01:17;;;;;;;;;;;-3.20;99.90;;;;;;5054660;28;19921;-77
2023/01/17 07:03:43;;;;;;;;;;;-3.30;99.90;;;;;;5055317;28;19913;-75
2023/01/17 07:06:09;;;;;;;;;;;-3.30;99.90;;;;;;5054664;28;19920;-78
2023/01/17 07:08:35;;;;;;;;;;;-3.40;99.90;;;;;;5055028;28;19919;-77
2023/01/17 07:11:01;;;;;;;;;;;-3.40;99.90;;;;;;5037238;28;19909;-78
2023/01/17 07:13:27;;;;;;;;;;;-3.40;99.90;;;;;;5054857;28;19913;-77
2023/01/17 07:15:53;;;;;;;;;;;-3.50;99.90;;;;;;5036819;28;19919;-77
2023/01/17 07:18:21;;;;;;;;;;;-3.50;99.90;;;;;;5054620;28;19920;-75
2023/01/17 07:20:50;;;;;;;;;;;-3.50;99.90;;;;;;5054603;28;19948;-75
2023/01/17 07:23:16;;;;;;;;;;;-3.40;99.90;;;;;;5054763;28;19909;-77
2023/01/17 07:25:42;;;;;;;;;;;-3.40;99.90;;;;;;5055702;28;20273;-74
2023/01/17 07:28:07;;;;;;;;;;;-3.40;99.90;;;;;;5036570;28;19917;-74
2023/01/17 07:30:34;;;;;;;;;;;-3.40;99.90;;;;;;5054517;28;19909;-75
2023/01/17 07:33:00;;;;;;;;;;;-3.50;99.90;;;;;;5054328;28;20367;-75
2023/01/17 07:35:25;;;;;;;;;;;-3.50;99.90;;;;;;5054237;28;20005;-76
2023/01/17 07:37:52;;;;;;;;;;;-3.50;99.90;;;;;;5054396;28;19909;-76
2023/01/17 07:40:18;;;;;;;;;;;-3.50;99.90;;;;;;5054208;28;19964;-76
2023/01/17 07:42:45;;;;;;;;;;;-3.50;99.90;;;;;;5036391;28;19971;-75
2023/01/17 07:45:11;;;;;;;;;;;-3.50;99.90;;;;;;5054077;28;19963;-76
2023/01/17 07:47:36;;;;;;;;;;;-3.50;99.90;;;;;;5054123;28;19912;-76
2023/01/17 07:50:03;;;;;;;;;;;-3.40;99.90;;;;;;5054296;28;20008;-76
2023/01/17 07:52:28;;;;;;;;;;;-3.40;99.90;;;;;;5036260;28;19917;-76
2023/01/17 07:54:54;;;;;;;;;;;-3.40;99.90;;;;;;5036276;28;20289;-76
2023/01/17 07:57:19;;;;;;;;;;;-3.30;99.90;;;;;;5036178;28;20400;-76
2023/01/17 07:59:45;;;;;;;;;;;-3.30;99.90;;;;;;5053699;28;19967;-76
2023/01/17 08:02:21;;;;;;;;;;;-3.30;99.90;;;;;;5036160;28;20422;-76
2023/01/17 08:04:47;;;;;;;;;;;-3.20;99.90;;;;;;5053866;28;20004;-77
2023/01/17 08:07:12;;;;;;;;;;;-3.20;99.90;;;;;;5054027;28;19956;-76
2023/01/17 08:09:38;;;;;;;;;;;-3.10;99.90;;;;;;5053750;28;19923;-76
2023/01/17 08:12:04;;;;;;;;;;;-3.10;99.90;;;;;;5053818;28;19916;-77
2023/01/17 08:14:30;;;;;;;;;;;-3.00;99.90;;;;;;5036054;28;20007;-76
2023/01/17 08:17:02;;;;;;;;;;;-3.00;99.90;;;;;;5054051;28;20396;-76
2023/01/17 08:19:28;;;;;;;;;;;-2.90;99.90;;;;;;5053919;28;20319;-76
2023/01/17 08:21:53;;;;;;;;;;;-2.90;99.90;;;;;;5054986;28;19963;-76
2023/01/17 08:24:19;;;;;;;;;;;-2.80;99.90;;;;;;5038677;28;19920;-76
2023/01/17 08:26:44;;;;;;;;;;;-2.80;99.90;;;;;;5023569;28;20336;-76
2023/01/17 08:29:10;;;;;;;;;;;-2.70;99.90;;;;;;5041147;28;19913;-76
2023/01/17 08:31:35;;;;;;;;;;;-2.60;99.90;;;;;;5057360;28;19923;-76
2023/01/17 08:34:01;;;;;;;;;;;-2.60;99.90;;;;;;5021404;28;19913;-76
2023/01/17 08:36:27;;;;;;;;;;;-2.50;99.90;;;;;;5055395;28;19909;-76
2023/01/17 08:38:54;;;;;;;;;;;-2.50;99.90;;;;;;5036444;28;19920;-76
2023/01/17 08:41:20;;;;;;;;;;;-2.40;99.90;;;;;;5053579;28;19913;-76
2023/01/17 08:43:47;;;;;;;;;;;-2.30;99.90;;;;;;5035679;28;20365;-75
2023/01/17 08:46:12;;;;;;;;;;;-2.30;99.90;;;;;;5053445;28;19990;-76
2023/01/17 08:48:38;;;;;;;;;;;-2.20;99.90;;;;;;5053541;28;19960;-76
2023/01/17 08:51:03;;;;;;;;;;;-2.20;99.90;;;;;;5035820;28;19920;-76
2023/01/17 08:53:29;;;;;;;;;;;-2.10;99.90;;;;;;5035665;28;19909;-76
2023/01/17 08:56:01;;;;;;;;;;;-2.10;99.90;;;;;;5053383;28;20409;-76
2023/01/17 08:58:28;;;;;;;;;;;-2.00;99.90;;;;;;5053282;28;19912;-77
2023/01/17 09:00:53;;;;;;;;;;;-1.90;99.90;;;;;;5035240;28;20483;-76
2023/01/17 09:03:19;;;;;;;;;;;-1.90;99.90;;;;;;5053473;28;19952;-76
2023/01/17 09:05:45;;;;;;;;;;;-1.80;99.90;;;;;;5053500;28;19913;-76
2023/01/17 09:08:10;;;;;;;;;;;-1.70;99.90;;;;;;5053382;28;20291;-76
2023/01/17 09:10:36;;;;;;;;;;;-1.60;99.90;;;;;;5054029;28;19913;-76
2023/01/17 09:13:04;;;;;;;;;;;-1.50;99.90;;;;;;5057152;28;19912;-76
2023/01/17 09:15:30;;;;;;;;;;;-1.40;99.90;;;;;;5038945;28;20283;-76
2023/01/17 09:17:56;;;;;;;;;;;-1.30;99.90;;;;;;5039109;28;20003;-76
2023/01/17 09:20:22;;;;;;;;;;;-1.20;99.90;;;;;;5057090;28;20370;-76
2023/01/17 09:22:48;;;;;;;;;;;-1.20;99.90;;;;;;5056894;28;19990;-76
2023/01/17 09:25:14;;;;;;;;;;;-1.10;99.90;;;;;;5056910;28;20435;-76
2023/01/17 09:27:43;;;;;;;;;;;-1.10;99.90;;;;;;5056943;28;19917;-77
2023/01/17 09:30:09;;;;;;;;;;;-1.00;99.90;;;;;;5059513;28;19913;-76
2023/01/17 09:32:34;;;;;;;;;;;-0.90;99.90;;;;;;5057379;28;19982;-79
2023/01/17 09:35:00;;;;;;;;;;;-0.90;99.90;;;;;;5041859;28;19913;-78
2023/01/17 09:37:25;;;;;;;;;;;-0.80;99.90;;;;;;5059387;28;19944;-78
2023/01/17 09:39:51;;;;;;;;;;;-0.70;99.90;;;;;;5058038;28;19919;-78
2023/01/17 09:42:20;;;;;;;;;;;-0.70;99.90;;;;;;5060186;28;19909;-80
2023/01/17 09:44:50;;;;;;;;;;;-0.70;99.90;;;;;;5058788;28;19909;-77
2023/01/17 09:47:19;;;;;;;;;;;-0.70;99.90;;;;;;5038384;28;19913;-77
2023/01/17 09:49:45;;;;;;;;;;;-0.70;99.90;;;;;;5056987;28;19909;-78
2023/01/17 09:52:16;;;;;;;;;;;-0.60;99.90;;;;;;5058750;28;19912;-78
2023/01/17 09:54:44;;;;;;;;;;;-0.60;99.90;;;;;;5058804;28;19912;-79
2023/01/17 09:57:33;;;;;;;;;;;-0.50;99.90;;;;;;5058344;28;19908;-78
2023/01/17 09:59:59;;;;;;;;;;;-0.50;99.90;;;;;;5058312;28;19920;-78
2023/01/17 10:02:27;;;;;;;;;;;-0.40;99.90;;;;;;5056249;28;19915;-77
2023/01/17 10:05:11;;;;;;;;;;;-0.30;99.90;;;;;;5056629;28;19916;-77
2023/01/17 10:07:45;;;;;;;;;;;-0.30;99.90;;;;;;5056379;28;19913;-77
2023/01/17 10:10:17;;;;;;;;;;;-0.30;99.90;;;;;;5055930;28;19909;-77
2023/01/17 10:12:52;;;;;;;;;;;-0.20;99.90;;;;;;5038310;28;20353;-78
2023/01/17 10:15:33;;;;;;;;;;;-0.20;99.90;;;;;;5056099;28;19958;-77
2023/01/17 10:18:04;;;;;;;;;;;-0.10;99.90;;;;;;5056505;28;19913;-77
2023/01/17 10:20:59;;;;;;;;;;;0.00;99.90;;;;;;5056092;28;19908;-78
2023/01/17 10:23:28;;;;;;;;;;;0.00;99.90;;;;;;5046292;28;19915;-78
2023/01/17 10:25:56;;;;;;;;;;;0.10;99.90;;;;;;5056204;28;19909;-78
2023/01/17 10:28:45;;;;;;;;;;;0.10;99.90;;;;;;5055659;28;20440;-76
2023/01/17 10:31:31;;;;;;;;;;;0.20;99.90;;;;;;5055665;28;19916;-76
2023/01/17 10:34:03;;;;;;;;;;;0.20;99.90;;;;;;5054928;28;19954;-77
2023/01/17 10:36:30;;;;;;;;;;;0.30;99.90;;;;;;5058073;28;19995;-79
2023/01/17 10:39:00;;;;;;;;;;;0.30;99.90;;;;;;5057266;28;19995;-79
2023/01/17 10:41:31;;;;;;;;;;;0.40;99.90;;;;;;5056953;28;19971;-76
2023/01/17 10:44:16;;;;;;;;;;;0.40;99.90;;;;;;5038860;28;20293;-79
2023/01/17 10:46:44;;;;;;;;;;;0.50;99.90;;;;;;5058215;28;19912;-79
2023/01/17 10:49:15;;;;;;;;;;;0.50;99.90;;;;;;5057248;28;19916;-79
2023/01/17 10:51:42;;;;;;;;;;;0.50;99.90;;;;;;5039163;28;19909;-79
2023/01/17 10:54:14;;;;;;;;;;;0.60;99.90;;;;;;5056933;28;19920;-79
2023/01/17 10:56:40;;;;;;;;;;;0.60;99.90;;;;;;5057407;28;19966;-79
2023/01/17 10:59:12;;;;;;;;;;;0.70;99.90;;;;;;5039495;28;20283;-80
2023/01/17 11:01:38;;;;;;;;;;;0.70;99.90;;;;;;5038757;28;19966;-80
2023/01/17 11:04:10;;;;;;;;;;;0.70;99.90;;;;;;5056464;28;19913;-80
2023/01/17 11:06:37;;;;;;;;;;;0.80;99.90;;;;;;5056743;28;19909;-80
2023/01/17 11:09:04;;;;;;;;;;;0.80;99.90;;;;;;5038981;28;19920;-80
2023/01/17 11:11:34;;;;;;;;;;;0.80;99.90;;;;;;5038783;28;20327;-80
2023/01/17 11:14:19;;;;;;;;;;;0.80;99.90;;;;;;5056503;28;19916;-80
2023/01/17 11:16:57;;;;;;;;;;;0.80;99.90;;;;;;5055605;28;19909;-79
2023/01/17 11:19:27;;;;;;;;;;;0.80;99.90;;;;;;5056040;28;20007;-79
2023/01/17 11:22:00;;;;;;;;;;;0.80;99.90;;;;;;5056305;28;19909;-79
2023/01/17 11:24:30;;;;;;;;;;;0.80;99.90;;;;;;5056334;28;19951;-79
2023/01/17 11:26:55;;;;;;;;;;;0.80;99.90;;;;;;5055729;28;19912;-78
2023/01/17 11:29:27;;;;;;;;;;;0.90;99.90;;;;;;5054614;28;19920;-76
2023/01/17 11:31:53;;;;;;;;;;;0.90;99.90;;;;;;5055283;28;19909;-78
2023/01/17 11:34:22;;;;;;;;;;;0.90;99.90;;;;;;5054927;28;20353;-78
2023/01/17 11:36:49;;;;;;;;;;;0.90;99.90;;;;;;5054230;28;19917;-75
2023/01/17 11:39:17;;;;;;;;;;;0.90;99.90;;;;;;5055259;28;19943;-76
2023/01/17 11:41:44;;;;;;;;;;;0.90;99.90;;;;;;5054077;28;20419;-76
2023/01/17 11:44:21;;;;;;;;;;;0.90;99.90;;;;;;5055005;28;19908;-79
2023/01/17 11:46:47;;;;;;;;;;;0.90;99.90;;;;;;5055138;28;19913;-78
2023/01/17 11:49:23;;;;;;;;;;;0.90;99.90;;;;;;5037288;28;19913;-78
2023/01/17 11:51:54;;;;;;;;;;;0.90;99.90;;;;;;5055381;28;19996;-78
2023/01/17 11:54:25;;;;;;;;;;;0.90;99.90;;;;;;5037192;28;19912;-78
2023/01/17 11:56:58;;;;;;;;;;;0.90;99.90;;;;;;5054730;28;19909;-78
2023/01/17 11:59:36;;;;;;;;;;;0.90;99.90;;;;;;5054883;28;19959;-78
2023/01/17 12:02:11;;;;;;;;;;;1.00;99.90;;;;;;5036844;28;19920;-78
2023/01/17 12:04:58;;;;;;;;;;;1.00;99.90;;;;;;5036968;28;19909;-78
2023/01/17 12:07:27;;;;;;;;;;;1.10;99.90;;;;;;5054643;28;19919;-78
2023/01/17 12:09:57;;;;;;;;;;;1.10;99.90;;;;;;5036682;28;19948;-78
2023/01/17 12:15:32;;;;;;;;;;;1.20;99.90;;;;;;5054790;28;19916;-78
2023/01/17 12:18:01;;;;;;;;;;;1.20;99.90;;;;;;5054272;28;19958;-79
2023/01/17 12:20:31;;;;;;;;;;;1.20;99.90;;;;;;5054388;28;19975;-79
2023/01/17 12:23:12;;;;;;;;;;;1.20;99.90;;;;;;5054611;28;19971;-79
2023/01/17 12:25:53;;;;;;;;;;;1.20;99.90;;;;;;5054753;28;20311;-79
2023/01/17 12:28:21;;;;;;;;;;;1.20;99.90;;;;;;5054235;28;20070;-79
2023/01/17 12:31:05;;;;;;;;;;;1.20;99.90;;;;;;5054700;28;19908;-79
2023/01/17 12:33:33;;;;;;;;;;;1.20;99.90;;;;;;5036260;28;20277;-79
2023/01/17 12:36:06;;;;;;;;;;;1.20;99.90;;;;;;5054379;28;19909;-79
2023/01/17 12:38:34;;;;;;;;;;;1.20;99.90;;;;;;5054276;28;19931;-79
2023/01/17 12:41:06;;;;;;;;;;;1.20;99.90;;;;;;5054186;28;19994;-77
2023/01/17 12:43:38;;;;;;;;;;;1.20;99.90;;;;;;5054782;28;19908;-79
2023/01/17 12:46:13;;;;;;;;;;;1.20;99.90;;;;;;5055652;28;19909;-79
2023/01/17 12:48:38;;;;;;;;;;;1.20;99.90;;;;;;5040404;28;19921;-80
2023/01/17 12:51:12;;;;;;;;;;;1.10;99.90;;;;;;5040869;28;20399;-79
2023/01/17 12:53:53;;;;;;;;;;;1.10;99.90;;;;;;5040402;28;19919;-79
2023/01/17 12:56:21;;;;;;;;;;;1.10;99.90;;;;;;5058133;28;19999;-79
2023/01/17 12:58:49;;;;;;;;;;;1.10;99.90;;;;;;5040092;28;20342;-79
2023/01/17 13:01:18;;;;;;;;;;;1.10;99.90;;;;;;5039671;28;20008;-79
2023/01/17 13:04:03;;;;;;;;;;;1.10;99.90;;;;;;5057796;28;19909;-79
2023/01/17 13:06:49;;;;;;;;;;;1.10;99.90;;;;;;5039802;28;19935;-79
2023/01/17 13:09:18;;;;;;;;;;;1.10;99.90;;;;;;5050743;28;20269;-78
2023/01/17 13:11:49;;;;;;;;;;;1.10;99.90;;;;;;5058022;28;19908;-79
2023/01/17 13:14:15;;;;;;;;;;;1.10;99.90;;;;;;5039981;28;19931;-79
2023/01/17 13:16:48;;;;;;;;;;;1.10;99.90;;;;;;5057575;28;19909;-78
2023/01/17 13:19:23;;;;;;;;;;;1.10;99.90;;;;;;5058404;28;19909;-78
2023/01/17 13:21:49;;;;;;;;;;;1.20;99.90;;;;;;5057732;28;19919;-79
2023/01/17 13:24:35;;;;;;;;;;;1.10;99.90;;;;;;5041103;28;19946;-78
2023/01/17 13:27:11;;;;;;;;;;;1.10;99.90;;;;;;5058134;28;19912;-78
2023/01/17 13:29:40;;;;;;;;;;;1.20;99.90;;;;;;5058590;28;20274;-78
2023/01/17 13:32:06;;;;;;;;;;;1.20;99.90;;;;;;5058172;28;20361;-78
2023/01/17 13:34:34;;;;;;;;;;;1.20;99.90;;;;;;5058452;28;19915;-78
2023/01/17 13:37:15;;;;;;;;;;;1.30;99.90;;;;;;5057833;28;19909;-77
2023/01/17 13:39:59;;;;;;;;;;;1.30;99.90;;;;;;5057752;28;20281;-78
2023/01/17 13:42:43;;;;;;;;;;;1.30;99.90;;;;;;5057220;28;19908;-78
2023/01/17 13:45:18;;;;;;;;;;;1.30;99.90;;;;;;5057997;28;19909;-78
2023/01/17 13:47:43;;;;;;;;;;;1.30;99.90;;;;;;5057851;28;19962;-78
2023/01/17 13:50:27;;;;;;;;;;;1.40;99.90;;;;;;5039510;28;19913;-78
2023/01/17 13:53:04;;;;;;;;;;;1.50;99.90;;;;;;5057214;28;20369;-78
2023/01/17 13:55:43;;;;;;;;;;;1.50;99.90;;;;;;5058096;28;20406;-78
2023/01/17 13:58:25;;;;;;;;;;;1.70;99.90;;;;;;5057288;28;19920;-78
2023/01/17 14:00:53;;;;;;;;;;;1.80;99.90;;;;;;5056828;28;19916;-78
2023/01/17 14:03:38;;;;;;;;;;;2.00;99.90;;;;;;5056696;28;19921;-77
2023/01/17 14:06:05;;;;;;;;;;;2.10;99.90;;;;;;5056541;28;19909;-77
2023/01/17 14:08:33;;;;;;;;;;;2.20;99.90;;;;;;5038513;28;20448;-77
2023/01/17 14:11:07;;;;;;;;;;;2.30;99.90;;;;;;5056576;28;19987;-77
2023/01/17 14:13:34;;;;;;;;;;;2.30;99.90;;;;;;5056330;28;19909;-77
2023/01/17 14:16:01;;;;;;;;;;;2.30;99.90;;;;;;5056326;28;19915;-77
2023/01/17 14:18:36;;;;;;;;;;;2.20;99.90;;;;;;5056338;28;20349;-77
2023/01/17 14:21:04;;;;;;;;;;;2.20;99.90;;;;;;5055951;28;19912;-77
2023/01/17 14:23:32;;;;;;;;;;;2.20;99.90;;;;;;5057037;28;19909;-78
2023/01/17 14:25:59;;;;;;;;;;;2.10;99.90;;;;;;5056551;28;20369;-77
2023/01/17 14:28:28;;;;;;;;;;;2.10;99.90;;;;;;5038273;28;20284;-77
2023/01/17 14:30:55;;;;;;;;;;;2.10;99.90;;;;;;5055960;28;19952;-78
2023/01/17 14:33:26;;;;;;;;;;;2.10;99.90;;;;;;5056210;28;19916;-77
2023/01/17 14:35:54;;;;;;;;;;;2.20;99.90;;;;;;5055833;28;19932;-77
2023/01/17 14:38:21;;;;;;;;;;;2.20;99.90;;;;;;5056224;28;20253;-77
2023/01/17 14:41:02;;;;;;;;;;;2.30;99.90;;;;;;5055571;28;19916;-75
2023/01/17 14:43:31;;;;;;;;;;;2.30;99.90;;;;;;5056022;28;19943;-77
2023/01/17 14:45:58;;;;;;;;;;;2.20;99.90;;;;;;5056182;28;19958;-77
2023/01/17 14:48:24;;;;;;;;;;;2.20;99.90;;;;;;5055700;28;19913;-77
2023/01/17 14:50:52;;;;;;;;;;;2.20;99.90;;;;;;5056057;28;19935;-77
2023/01/17 14:53:26;;;;;;;;;;;2.20;99.90;;;;;;5055638;28;19913;-77
2023/01/17 14:55:56;;;;;;;;;;;2.10;99.90;;;;;;5037026;28;19912;-77
2023/01/17 14:58:29;;;;;;;;;;;2.10;99.90;;;;;;5055166;28;19909;-77
2023/01/17 15:00:56;;;;;;;;;;;2.00;99.90;;;;;;5055297;28;19917;-77
2023/01/17 15:03:22;;;;;;;;;;;2.00;99.90;;;;;;5037521;28;19909;-77
2023/01/17 15:05:49;;;;;;;;;;;2.00;99.90;;;;;;5055646;28;20315;-77
2023/01/17 15:08:23;;;;;;;;;;;1.90;99.90;;;;;;5054587;28;19920;-78
2023/01/17 15:11:01;;;;;;;;;;;1.90;99.90;;;;;;5054990;28;19955;-77
2023/01/17 15:13:32;;;;;;;;;;;1.90;99.90;;;;;;5055181;28;19952;-77
2023/01/17 15:16:02;;;;;;;;;;;1.90;99.90;;;;;;5055004;28;19958;-76
2023/01/17 15:18:30;;;;;;;;;;;1.80;99.90;;;;;;5054977;28;19913;-77
2023/01/17 15:21:00;;;;;;;;;;;1.80;99.90;;;;;;5054921;28;19909;-77
2023/01/17 15:23:29;;;;;;;;;;;1.80;99.90;;;;;;5055543;28;19916;-77
2023/01/17 15:25:55;;;;;;;;;;;1.70;99.90;;;;;;5036996;28;19931;-77
2023/01/17 15:28:20;;;;;;;;;;;1.70;99.90;;;;;;5055098;28;20269;-77
2023/01/17 15:30:59;;;;;;;;;;;1.60;99.90;;;;;;5055009;28;19913;-77
2023/01/17 15:33:25;;;;;;;;;;;1.50;99.90;;;;;;5054662;28;19916;-77
2023/01/17 15:36:17;;;;;;;;;;;1.50;99.90;;;;;;5054668;28;19913;-76
2023/01/17 15:38:48;;;;;;;;;;;1.40;99.90;;;;;;5038575;28;19916;-77
2023/01/17 15:41:15;;;;;;;;;;;1.40;99.90;;;;;;5036857;28;20314;-74
2023/01/17 15:43:42;;;;;;;;;;;1.30;99.90;;;;;;5054097;28;19909;-76
2023/01/17 15:46:26;;;;;;;;;;;1.20;99.90;;;;;;5053928;28;20058;-76
2023/01/17 15:48:52;;;;;;;;;;;1.20;99.90;;;;;;5036040;28;19996;-74
2023/01/17 15:51:36;;;;;;;;;;;1.10;99.90;;;;;;5054014;28;20043;-76
2023/01/17 15:54:20;;;;;;;;;;;1.00;99.90;;;;;;5054766;28;19909;-76
2023/01/17 15:56:46;;;;;;;;;;;1.00;99.90;;;;;;5036354;28;19947;-76